sensor_id;sensor_type;location;lat;lon;timestamp;P1;durP1;ratioP1;P2;durP2;ratioP2
84966;SDS011;75275;51.348;12.358;2024-01-16T00:01:20;10.45;;;3.55;;
84966;SDS011;75275;51.348;12.358;2024-01-16T00:03:53;8.45;;;3.85;;
84966;SDS011;75275;51.348;12.358;2024-01-16T00:06:23;4.65;;;2.88;;
84966;SDS011;75275;51.348;12.358;2024-01-16T00:08:50;6.75;;;3.08;;
84966;SDS011;75275;51.348;12.358;2024-01-16T00:11:17;9.32;;;3.70;;
84966;SDS011;75275;51.348;12.358;2024-01-16T00:13:44;7.20;;;2.70;;
84966;SDS011;75275;51.348;12.358;2024-01-16T00:16:13;11.40;;;4.85;;
84966;SDS011;75275;51.348;12.358;2024-01-16T00:18:41;6.68;;;2.78;;
84966;SDS011;75275;51.348;12.358;2024-01-16T00:21:08;8.45;;;3.40;;
84966;SDS011;75275;51.348;12.358;2024-01-16T00:23:36;6.65;;;2.78;;
84966;SDS011;75275;51.348;12.358;2024-01-16T00:26:03;16.88;;;6.07;;
84966;SDS011;75275;51.348;12.358;2024-01-16T00:28:30;12.18;;;3.90;;
84966;SDS011;75275;51.348;12.358;2024-01-16T00:31:02;6.53;;;2.38;;
84966;SDS011;75275;51.348;12.358;2024-01-16T00:33:34;10.80;;;4.80;;
84966;SDS011;75275;51.348;12.358;2024-01-16T00:36:01;9.70;;;3.15;;
84966;SDS011;75275;51.348;12.358;2024-01-16T00:38:28;10.55;;;3.45;;
84966;SDS011;75275;51.348;12.358;2024-01-16T00:40:57;7.53;;;3.10;;
84966;SDS011;75275;51.348;12.358;2024-01-16T00:43:24;7.80;;;3.50;;
84966;SDS011;75275;51.348;12.358;2024-01-16T00:45:51;7.00;;;2.88;;
84966;SDS011;75275;51.348;12.358;2024-01-16T00:48:20;8.43;;;3.55;;
84966;SDS011;75275;51.348;12.358;2024-01-16T00:50:47;7.05;;;3.75;;
84966;SDS011;75275;51.348;12.358;2024-01-16T00:55:42;10.55;;;3.60;;
84966;SDS011;75275;51.348;12.358;2024-01-16T00:58:16;5.53;;;2.42;;
84966;SDS011;75275;51.348;12.358;2024-01-16T01:00:43;12.23;;;4.88;;
84966;SDS011;75275;51.348;12.358;2024-01-16T01:03:15;6.50;;;3.13;;
84966;SDS011;75275;51.348;12.358;2024-01-16T01:08:09;8.80;;;4.13;;
84966;SDS011;75275;51.348;12.358;2024-01-16T01:10:36;6.97;;;3.50;;
84966;SDS011;75275;51.348;12.358;2024-01-16T01:13:03;10.40;;;3.92;;
84966;SDS011;75275;51.348;12.358;2024-01-16T01:15:32;4.60;;;2.65;;
84966;SDS011;75275;51.348;12.358;2024-01-16T01:17:59;8.32;;;3.05;;
84966;SDS011;75275;51.348;12.358;2024-01-16T01:22:53;5.03;;;2.40;;
84966;SDS011;75275;51.348;12.358;2024-01-16T01:25:20;11.25;;;3.88;;
84966;SDS011;75275;51.348;12.358;2024-01-16T01:27:47;7.10;;;2.30;;
84966;SDS011;75275;51.348;12.358;2024-01-16T01:30:15;4.97;;;2.13;;
84966;SDS011;75275;51.348;12.358;2024-01-16T01:32:43;4.82;;;2.17;;
84966;SDS011;75275;51.348;12.358;2024-01-16T01:35:10;6.07;;;1.83;;
84966;SDS011;75275;51.348;12.358;2024-01-16T01:37:37;4.72;;;1.63;;
84966;SDS011;75275;51.348;12.358;2024-01-16T01:40:05;3.95;;;1.67;;
84966;SDS011;75275;51.348;12.358;2024-01-16T01:42:33;4.43;;;2.10;;
84966;SDS011;75275;51.348;12.358;2024-01-16T01:45:00;4.90;;;1.73;;
84966;SDS011;75275;51.348;12.358;2024-01-16T01:47:29;6.07;;;2.10;;
84966;SDS011;75275;51.348;12.358;2024-01-16T01:50:03;5.18;;;1.60;;
84966;SDS011;75275;51.348;12.358;2024-01-16T01:52:33;4.57;;;1.73;;
84966;SDS011;75275;51.348;12.358;2024-01-16T01:55:00;4.38;;;1.50;;
84966;SDS011;75275;51.348;12.358;2024-01-16T01:57:30;6.45;;;2.03;;
84966;SDS011;75275;51.348;12.358;2024-01-16T01:59:57;5.15;;;2.33;;
84966;SDS011;75275;51.348;12.358;2024-01-16T02:02:24;5.70;;;2.15;;
84966;SDS011;75275;51.348;12.358;2024-01-16T02:04:52;4.20;;;1.88;;
84966;SDS011;75275;51.348;12.358;2024-01-16T02:07:21;4.25;;;1.73;;
84966;SDS011;75275;51.348;12.358;2024-01-16T02:09:49;2.88;;;1.60;;
84966;SDS011;75275;51.348;12.358;2024-01-16T02:12:16;5.10;;;1.92;;
84966;SDS011;75275;51.348;12.358;2024-01-16T02:14:43;8.68;;;2.92;;
84966;SDS011;75275;51.348;12.358;2024-01-16T02:17:10;4.50;;;1.58;;
84966;SDS011;75275;51.348;12.358;2024-01-16T02:19:37;4.70;;;1.75;;
84966;SDS011;75275;51.348;12.358;2024-01-16T02:22:04;7.75;;;3.53;;
84966;SDS011;75275;51.348;12.358;2024-01-16T02:24:38;6.00;;;1.90;;
84966;SDS011;75275;51.348;12.358;2024-01-16T02:27:05;7.13;;;2.05;;
84966;SDS011;75275;51.348;12.358;2024-01-16T02:32:00;6.00;;;1.77;;
84966;SDS011;75275;51.348;12.358;2024-01-16T02:34:28;4.07;;;1.70;;
84966;SDS011;75275;51.348;12.358;2024-01-16T02:36:55;3.83;;;2.03;;
84966;SDS011;75275;51.348;12.358;2024-01-16T02:39:22;4.75;;;2.00;;
84966;SDS011;75275;51.348;12.358;2024-01-16T02:41:54;6.65;;;1.80;;
84966;SDS011;75275;51.348;12.358;2024-01-16T02:44:21;5.00;;;1.20;;
84966;SDS011;75275;51.348;12.358;2024-01-16T02:46:48;4.28;;;1.40;;
84966;SDS011;75275;51.348;12.358;2024-01-16T02:49:15;5.65;;;1.58;;
84966;SDS011;75275;51.348;12.358;2024-01-16T02:51:42;2.42;;;1.35;;
84966;SDS011;75275;51.348;12.358;2024-01-16T02:54:11;3.50;;;1.13;;
84966;SDS011;75275;51.348;12.358;2024-01-16T02:56:38;3.08;;;1.20;;
84966;SDS011;75275;51.348;12.358;2024-01-16T02:59:06;3.42;;;1.60;;
84966;SDS011;75275;51.348;12.358;2024-01-16T03:01:33;3.35;;;1.33;;
84966;SDS011;75275;51.348;12.358;2024-01-16T03:06:27;4.15;;;1.50;;
84966;SDS011;75275;51.348;12.358;2024-01-16T03:08:54;2.88;;;1.17;;
84966;SDS011;75275;51.348;12.358;2024-01-16T03:11:21;3.05;;;1.10;;
84966;SDS011;75275;51.348;12.358;2024-01-16T03:13:48;2.90;;;1.05;;
84966;SDS011;75275;51.348;12.358;2024-01-16T03:16:19;4.45;;;1.80;;
84966;SDS011;75275;51.348;12.358;2024-01-16T03:18:46;2.58;;;1.20;;
84966;SDS011;75275;51.348;12.358;2024-01-16T03:21:13;4.75;;;1.65;;
84966;SDS011;75275;51.348;12.358;2024-01-16T03:23:40;4.90;;;1.40;;
84966;SDS011;75275;51.348;12.358;2024-01-16T03:26:11;4.03;;;1.45;;
84966;SDS011;75275;51.348;12.358;2024-01-16T03:28:39;2.55;;;0.98;;
84966;SDS011;75275;51.348;12.358;2024-01-16T03:31:06;4.63;;;1.27;;
84966;SDS011;75275;51.348;12.358;2024-01-16T03:33:40;3.00;;;1.27;;
84966;SDS011;75275;51.348;12.358;2024-01-16T03:36:08;4.18;;;1.27;;
84966;SDS011;75275;51.348;12.358;2024-01-16T03:38:37;3.92;;;1.77;;
84966;SDS011;75275;51.348;12.358;2024-01-16T03:41:10;3.92;;;1.33;;
84966;SDS011;75275;51.348;12.358;2024-01-16T03:43:37;6.15;;;1.50;;
84966;SDS011;75275;51.348;12.358;2024-01-16T03:46:06;2.90;;;1.80;;
84966;SDS011;75275;51.348;12.358;2024-01-16T03:48:33;2.95;;;1.27;;
84966;SDS011;75275;51.348;12.358;2024-01-16T03:51:02;3.20;;;1.42;;
84966;SDS011;75275;51.348;12.358;2024-01-16T03:53:31;4.90;;;1.70;;
84966;SDS011;75275;51.348;12.358;2024-01-16T03:55:57;3.72;;;1.35;;
84966;SDS011;75275;51.348;12.358;2024-01-16T03:58:25;3.15;;;1.75;;
84966;SDS011;75275;51.348;12.358;2024-01-16T04:00:51;3.50;;;1.98;;
84966;SDS011;75275;51.348;12.358;2024-01-16T04:03:18;5.30;;;1.83;;
84966;SDS011;75275;51.348;12.358;2024-01-16T04:05:47;4.07;;;1.30;;
84966;SDS011;75275;51.348;12.358;2024-01-16T04:08:17;5.20;;;1.85;;
84966;SDS011;75275;51.348;12.358;2024-01-16T04:10:46;5.85;;;2.05;;
84966;SDS011;75275;51.348;12.358;2024-01-16T04:13:13;4.32;;;1.40;;
84966;SDS011;75275;51.348;12.358;2024-01-16T04:15:40;4.35;;;1.73;;
84966;SDS011;75275;51.348;12.358;2024-01-16T04:18:06;5.75;;;1.58;;
84966;SDS011;75275;51.348;12.358;2024-01-16T04:20:33;4.88;;;1.50;;
84966;SDS011;75275;51.348;12.358;2024-01-16T04:23:05;4.93;;;1.50;;
84966;SDS011;75275;51.348;12.358;2024-01-16T04:25:36;4.57;;;1.33;;
84966;SDS011;75275;51.348;12.358;2024-01-16T04:28:03;3.72;;;1.70;;
84966;SDS011;75275;51.348;12.358;2024-01-16T04:30:30;3.88;;;1.77;;
84966;SDS011;75275;51.348;12.358;2024-01-16T04:32:57;3.40;;;1.23;;
84966;SDS011;75275;51.348;12.358;2024-01-16T04:35:24;5.20;;;1.90;;
84966;SDS011;75275;51.348;12.358;2024-01-16T04:40:18;4.93;;;1.60;;
84966;SDS011;75275;51.348;12.358;2024-01-16T04:42:56;5.90;;;2.45;;
84966;SDS011;75275;51.348;12.358;2024-01-16T04:45:23;3.75;;;1.20;;
84966;SDS011;75275;51.348;12.358;2024-01-16T04:47:52;3.30;;;1.55;;
84966;SDS011;75275;51.348;12.358;2024-01-16T04:50:20;5.05;;;1.80;;
84966;SDS011;75275;51.348;12.358;2024-01-16T04:52:48;5.78;;;1.60;;
84966;SDS011;75275;51.348;12.358;2024-01-16T04:55:14;3.92;;;1.90;;
84966;SDS011;75275;51.348;12.358;2024-01-16T04:57:44;4.82;;;1.80;;
84966;SDS011;75275;51.348;12.358;2024-01-16T05:00:17;5.55;;;2.65;;
84966;SDS011;75275;51.348;12.358;2024-01-16T05:02:44;4.47;;;2.42;;
84966;SDS011;75275;51.348;12.358;2024-01-16T05:05:11;4.35;;;1.67;;
84966;SDS011;75275;51.348;12.358;2024-01-16T05:07:39;9.45;;;2.45;;
84966;SDS011;75275;51.348;12.358;2024-01-16T05:12:35;10.40;;;2.03;;
84966;SDS011;75275;51.348;12.358;2024-01-16T05:15:03;5.60;;;2.13;;
84966;SDS011;75275;51.348;12.358;2024-01-16T05:17:33;4.35;;;2.17;;
84966;SDS011;75275;51.348;12.358;2024-01-16T05:20:01;3.83;;;1.88;;
84966;SDS011;75275;51.348;12.358;2024-01-16T05:22:30;3.47;;;1.88;;
84966;SDS011;75275;51.348;12.358;2024-01-16T05:24:59;3.65;;;2.03;;
84966;SDS011;75275;51.348;12.358;2024-01-16T05:27:26;15.10;;;8.30;;
84966;SDS011;75275;51.348;12.358;2024-01-16T05:29:53;4.82;;;2.05;;
84966;SDS011;75275;51.348;12.358;2024-01-16T05:32:21;4.22;;;1.83;;
84966;SDS011;75275;51.348;12.358;2024-01-16T05:34:49;4.10;;;1.90;;
84966;SDS011;75275;51.348;12.358;2024-01-16T05:37:16;4.28;;;2.20;;
84966;SDS011;75275;51.348;12.358;2024-01-16T05:39:43;3.88;;;2.05;;
84966;SDS011;75275;51.348;12.358;2024-01-16T05:42:11;4.95;;;2.20;;
84966;SDS011;75275;51.348;12.358;2024-01-16T05:44:38;5.72;;;2.47;;
84966;SDS011;75275;51.348;12.358;2024-01-16T05:49:31;5.63;;;2.55;;
84966;SDS011;75275;51.348;12.358;2024-01-16T05:52:02;4.32;;;2.20;;
84966;SDS011;75275;51.348;12.358;2024-01-16T05:54:30;4.78;;;2.03;;
84966;SDS011;75275;51.348;12.358;2024-01-16T05:56:56;6.30;;;2.50;;
84966;SDS011;75275;51.348;12.358;2024-01-16T05:59:23;5.82;;;2.75;;
84966;SDS011;75275;51.348;12.358;2024-01-16T06:01:50;5.80;;;2.40;;
84966;SDS011;75275;51.348;12.358;2024-01-16T06:04:17;6.72;;;2.15;;
84966;SDS011;75275;51.348;12.358;2024-01-16T06:06:45;6.93;;;2.25;;
84966;SDS011;75275;51.348;12.358;2024-01-16T06:09:14;5.18;;;2.40;;
84966;SDS011;75275;51.348;12.358;2024-01-16T06:11:41;4.72;;;1.90;;
84966;SDS011;75275;51.348;12.358;2024-01-16T06:14:08;5.10;;;2.25;;
84966;SDS011;75275;51.348;12.358;2024-01-16T06:16:37;4.82;;;1.80;;
84966;SDS011;75275;51.348;12.358;2024-01-16T06:19:04;3.67;;;1.83;;
84966;SDS011;75275;51.348;12.358;2024-01-16T06:21:31;4.05;;;1.90;;
84966;SDS011;75275;51.348;12.358;2024-01-16T06:23:58;7.30;;;2.20;;
84966;SDS011;75275;51.348;12.358;2024-01-16T06:26:26;4.28;;;1.88;;
84966;SDS011;75275;51.348;12.358;2024-01-16T06:28:57;13.82;;;2.58;;
84966;SDS011;75275;51.348;12.358;2024-01-16T06:31:23;4.43;;;1.90;;
84966;SDS011;75275;51.348;12.358;2024-01-16T06:33:51;4.22;;;1.83;;
84966;SDS011;75275;51.348;12.358;2024-01-16T06:36:18;3.97;;;1.65;;
84966;SDS011;75275;51.348;12.358;2024-01-16T06:38:45;4.80;;;2.00;;
84966;SDS011;75275;51.348;12.358;2024-01-16T06:41:12;5.80;;;2.30;;
84966;SDS011;75275;51.348;12.358;2024-01-16T06:43:41;5.20;;;2.22;;
84966;SDS011;75275;51.348;12.358;2024-01-16T06:46:07;8.45;;;2.42;;
84966;SDS011;75275;51.348;12.358;2024-01-16T06:48:39;7.65;;;3.08;;
84966;SDS011;75275;51.348;12.358;2024-01-16T06:51:06;5.47;;;2.35;;
84966;SDS011;75275;51.348;12.358;2024-01-16T06:53:35;5.43;;;2.70;;
84966;SDS011;75275;51.348;12.358;2024-01-16T06:56:02;8.18;;;2.45;;
84966;SDS011;75275;51.348;12.358;2024-01-16T06:58:32;5.22;;;2.22;;
84966;SDS011;75275;51.348;12.358;2024-01-16T07:01:03;7.00;;;3.25;;
84966;SDS011;75275;51.348;12.358;2024-01-16T07:03:30;10.50;;;2.20;;
84966;SDS011;75275;51.348;12.358;2024-01-16T07:05:57;5.50;;;2.75;;
84966;SDS011;75275;51.348;12.358;2024-01-16T07:08:24;7.75;;;2.53;;
84966;SDS011;75275;51.348;12.358;2024-01-16T07:10:53;6.47;;;2.88;;
84966;SDS011;75275;51.348;12.358;2024-01-16T07:13:20;7.78;;;2.63;;
84966;SDS011;75275;51.348;12.358;2024-01-16T07:15:46;5.00;;;2.40;;
84966;SDS011;75275;51.348;12.358;2024-01-16T07:18:15;4.57;;;2.42;;
84966;SDS011;75275;51.348;12.358;2024-01-16T07:20:44;7.18;;;2.50;;
84966;SDS011;75275;51.348;12.358;2024-01-16T07:23:12;4.97;;;2.15;;
84966;SDS011;75275;51.348;12.358;2024-01-16T07:25:39;5.65;;;2.45;;
84966;SDS011;75275;51.348;12.358;2024-01-16T07:28:06;6.47;;;2.28;;
84966;SDS011;75275;51.348;12.358;2024-01-16T07:30:33;4.57;;;2.63;;
84966;SDS011;75275;51.348;12.358;2024-01-16T07:33:04;4.20;;;1.80;;
84966;SDS011;75275;51.348;12.358;2024-01-16T07:35:40;8.30;;;2.38;;
84966;SDS011;75275;51.348;12.358;2024-01-16T07:38:09;10.18;;;3.10;;
84966;SDS011;75275;51.348;12.358;2024-01-16T07:40:35;5.88;;;2.72;;
84966;SDS011;75275;51.348;12.358;2024-01-16T07:43:02;6.85;;;3.22;;
84966;SDS011;75275;51.348;12.358;2024-01-16T07:45:29;6.38;;;2.95;;
84966;SDS011;75275;51.348;12.358;2024-01-16T07:47:56;9.23;;;3.45;;
84966;SDS011;75275;51.348;12.358;2024-01-16T07:50:23;10.02;;;3.90;;
84966;SDS011;75275;51.348;12.358;2024-01-16T07:52:52;6.75;;;3.65;;
84966;SDS011;75275;51.348;12.358;2024-01-16T07:55:19;7.47;;;3.35;;
84966;SDS011;75275;51.348;12.358;2024-01-16T07:57:46;5.85;;;3.20;;
84966;SDS011;75275;51.348;12.358;2024-01-16T08:00:13;6.97;;;3.20;;
84966;SDS011;75275;51.348;12.358;2024-01-16T08:02:40;8.50;;;3.90;;
84966;SDS011;75275;51.348;12.358;2024-01-16T08:05:08;6.85;;;3.00;;
84966;SDS011;75275;51.348;12.358;2024-01-16T08:07:35;5.82;;;2.58;;
84966;SDS011;75275;51.348;12.358;2024-01-16T08:10:04;6.60;;;2.47;;
84966;SDS011;75275;51.348;12.358;2024-01-16T08:12:35;5.45;;;2.67;;
84966;SDS011;75275;51.348;12.358;2024-01-16T08:15:02;8.43;;;3.13;;
84966;SDS011;75275;51.348;12.358;2024-01-16T08:17:30;6.22;;;3.17;;
84966;SDS011;75275;51.348;12.358;2024-01-16T08:19:57;6.00;;;2.75;;
84966;SDS011;75275;51.348;12.358;2024-01-16T08:22:23;4.70;;;2.35;;
84966;SDS011;75275;51.348;12.358;2024-01-16T08:24:50;6.80;;;3.15;;
84966;SDS011;75275;51.348;12.358;2024-01-16T08:27:22;6.55;;;2.58;;
84966;SDS011;75275;51.348;12.358;2024-01-16T08:29:49;3.53;;;2.28;;
84966;SDS011;75275;51.348;12.358;2024-01-16T08:32:15;5.15;;;2.40;;
84966;SDS011;75275;51.348;12.358;2024-01-16T08:34:42;5.80;;;2.38;;
84966;SDS011;75275;51.348;12.358;2024-01-16T08:37:10;5.38;;;2.47;;
84966;SDS011;75275;51.348;12.358;2024-01-16T08:39:37;6.00;;;2.40;;
84966;SDS011;75275;51.348;12.358;2024-01-16T08:42:04;9.75;;;2.80;;
84966;SDS011;75275;51.348;12.358;2024-01-16T08:44:33;6.43;;;2.33;;
84966;SDS011;75275;51.348;12.358;2024-01-16T08:46:59;7.07;;;2.83;;
84966;SDS011;75275;51.348;12.358;2024-01-16T08:49:29;7.72;;;2.22;;
84966;SDS011;75275;51.348;12.358;2024-01-16T08:51:56;5.25;;;2.35;;
84966;SDS011;75275;51.348;12.358;2024-01-16T08:54:23;6.93;;;2.42;;
84966;SDS011;75275;51.348;12.358;2024-01-16T08:56:52;6.28;;;2.60;;
84966;SDS011;75275;51.348;12.358;2024-01-16T08:59:19;4.60;;;2.40;;
84966;SDS011;75275;51.348;12.358;2024-01-16T09:01:48;3.70;;;2.08;;
84966;SDS011;75275;51.348;12.358;2024-01-16T09:04:17;6.53;;;2.47;;
84966;SDS011;75275;51.348;12.358;2024-01-16T09:06:43;5.82;;;2.55;;
84966;SDS011;75275;51.348;12.358;2024-01-16T09:09:13;5.57;;;2.55;;
84966;SDS011;75275;51.348;12.358;2024-01-16T09:11:41;8.82;;;2.75;;
84966;SDS011;75275;51.348;12.358;2024-01-16T09:14:08;4.68;;;2.90;;
84966;SDS011;75275;51.348;12.358;2024-01-16T09:19:03;4.32;;;2.20;;
84966;SDS011;75275;51.348;12.358;2024-01-16T09:21:30;4.25;;;2.60;;
84966;SDS011;75275;51.348;12.358;2024-01-16T09:23:57;6.50;;;2.85;;
84966;SDS011;75275;51.348;12.358;2024-01-16T09:28:53;6.22;;;3.22;;
84966;SDS011;75275;51.348;12.358;2024-01-16T09:31:20;4.68;;;2.45;;
84966;SDS011;75275;51.348;12.358;2024-01-16T09:33:47;6.30;;;2.42;;
84966;SDS011;75275;51.348;12.358;2024-01-16T09:36:15;9.73;;;2.63;;
84966;SDS011;75275;51.348;12.358;2024-01-16T09:38:42;7.80;;;2.72;;
84966;SDS011;75275;51.348;12.358;2024-01-16T09:41:09;10.38;;;3.88;;
84966;SDS011;75275;51.348;12.358;2024-01-16T09:43:43;7.85;;;3.08;;
84966;SDS011;75275;51.348;12.358;2024-01-16T09:46:11;6.53;;;2.45;;
84966;SDS011;75275;51.348;12.358;2024-01-16T09:48:40;7.88;;;2.65;;
84966;SDS011;75275;51.348;12.358;2024-01-16T09:51:12;8.23;;;2.65;;
84966;SDS011;75275;51.348;12.358;2024-01-16T09:53:42;8.38;;;2.40;;
84966;SDS011;75275;51.348;12.358;2024-01-16T09:56:09;6.38;;;2.45;;
84966;SDS011;75275;51.348;12.358;2024-01-16T09:58:40;5.10;;;2.42;;
84966;SDS011;75275;51.348;12.358;2024-01-16T10:01:09;7.05;;;3.03;;
84966;SDS011;75275;51.348;12.358;2024-01-16T10:03:36;5.32;;;2.72;;
84966;SDS011;75275;51.348;12.358;2024-01-16T10:06:05;7.40;;;2.50;;
84966;SDS011;75275;51.348;12.358;2024-01-16T10:08:35;10.48;;;3.30;;
84966;SDS011;75275;51.348;12.358;2024-01-16T10:11:03;6.82;;;2.80;;
84966;SDS011;75275;51.348;12.358;2024-01-16T10:13:36;4.57;;;2.25;;
84966;SDS011;75275;51.348;12.358;2024-01-16T10:16:04;5.10;;;2.80;;
84966;SDS011;75275;51.348;12.358;2024-01-16T10:18:32;4.88;;;2.53;;
84966;SDS011;75275;51.348;12.358;2024-01-16T10:21:00;5.78;;;2.90;;
84966;SDS011;75275;51.348;12.358;2024-01-16T10:23:27;4.00;;;2.35;;
84966;SDS011;75275;51.348;12.358;2024-01-16T10:26:06;6.90;;;2.55;;
84966;SDS011;75275;51.348;12.358;2024-01-16T10:28:34;6.78;;;2.38;;
84966;SDS011;75275;51.348;12.358;2024-01-16T10:31:02;4.63;;;2.22;;
84966;SDS011;75275;51.348;12.358;2024-01-16T10:33:29;6.65;;;2.58;;
84966;SDS011;75275;51.348;12.358;2024-01-16T10:36:07;6.78;;;2.35;;
84966;SDS011;75275;51.348;12.358;2024-01-16T10:38:35;6.38;;;2.78;;
84966;SDS011;75275;51.348;12.358;2024-01-16T10:41:04;6.72;;;2.65;;
84966;SDS011;75275;51.348;12.358;2024-01-16T10:43:34;8.65;;;2.80;;
84966;SDS011;75275;51.348;12.358;2024-01-16T10:46:11;6.70;;;2.63;;
84966;SDS011;75275;51.348;12.358;2024-01-16T10:48:40;7.63;;;3.08;;
84966;SDS011;75275;51.348;12.358;2024-01-16T10:51:08;5.70;;;2.38;;
84966;SDS011;75275;51.348;12.358;2024-01-16T10:53:37;6.20;;;2.95;;
84966;SDS011;75275;51.348;12.358;2024-01-16T10:56:12;5.03;;;2.38;;
84966;SDS011;75275;51.348;12.358;2024-01-16T10:58:41;7.05;;;2.17;;
84966;SDS011;75275;51.348;12.358;2024-01-16T11:01:15;5.55;;;2.40;;
84966;SDS011;75275;51.348;12.358;2024-01-16T11:03:46;5.78;;;3.08;;
84966;SDS011;75275;51.348;12.358;2024-01-16T11:06:15;6.47;;;2.60;;
84966;SDS011;75275;51.348;12.358;2024-01-16T11:08:45;6.07;;;2.58;;
84966;SDS011;75275;51.348;12.358;2024-01-16T11:11:15;5.60;;;2.20;;
84966;SDS011;75275;51.348;12.358;2024-01-16T11:13:42;5.10;;;2.40;;
84966;SDS011;75275;51.348;12.358;2024-01-16T11:16:10;6.93;;;2.47;;
84966;SDS011;75275;51.348;12.358;2024-01-16T11:18:37;4.25;;;2.45;;
84966;SDS011;75275;51.348;12.358;2024-01-16T11:21:07;6.15;;;2.50;;
84966;SDS011;75275;51.348;12.358;2024-01-16T11:23:37;6.07;;;2.30;;
84966;SDS011;75275;51.348;12.358;2024-01-16T11:28:51;6.13;;;2.42;;
84966;SDS011;75275;51.348;12.358;2024-01-16T11:31:28;4.63;;;2.40;;
84966;SDS011;75275;51.348;12.358;2024-01-16T11:33:56;5.68;;;2.30;;
84966;SDS011;75275;51.348;12.358;2024-01-16T11:36:43;4.88;;;2.45;;
84966;SDS011;75275;51.348;12.358;2024-01-16T11:39:19;6.35;;;2.50;;
84966;SDS011;75275;51.348;12.358;2024-01-16T11:41:53;5.47;;;2.33;;
84966;SDS011;75275;51.348;12.358;2024-01-16T11:47:41;4.57;;;2.60;;
84966;SDS011;75275;51.348;12.358;2024-01-16T11:50:08;4.75;;;2.78;;
84966;SDS011;75275;51.348;12.358;2024-01-16T11:52:39;5.55;;;2.38;;
84966;SDS011;75275;51.348;12.358;2024-01-16T11:55:24;4.65;;;2.70;;
84966;SDS011;75275;51.348;12.358;2024-01-16T11:57:54;5.93;;;2.80;;
84966;SDS011;75275;51.348;12.358;2024-01-16T12:00:37;5.70;;;2.83;;
84966;SDS011;75275;51.348;12.358;2024-01-16T12:03:08;10.43;;;3.10;;
84966;SDS011;75275;51.348;12.358;2024-01-16T12:05:36;5.80;;;2.90;;
84966;SDS011;75275;51.348;12.358;2024-01-16T12:08:03;5.22;;;2.83;;
84966;SDS011;75275;51.348;12.358;2024-01-16T12:10:34;6.15;;;2.72;;
84966;SDS011;75275;51.348;12.358;2024-01-16T12:13:12;6.43;;;2.72;;
84966;SDS011;75275;51.348;12.358;2024-01-16T12:15:39;10.60;;;3.67;;
84966;SDS011;75275;51.348;12.358;2024-01-16T12:18:08;6.30;;;3.47;;
84966;SDS011;75275;51.348;12.358;2024-01-16T12:20:36;8.30;;;3.42;;
84966;SDS011;75275;51.348;12.358;2024-01-16T12:23:09;6.15;;;2.97;;
84966;SDS011;75275;51.348;12.358;2024-01-16T12:25:38;8.40;;;3.72;;
84966;SDS011;75275;51.348;12.358;2024-01-16T12:28:05;9.18;;;3.50;;
84966;SDS011;75275;51.348;12.358;2024-01-16T12:30:36;5.18;;;3.05;;
84966;SDS011;75275;51.348;12.358;2024-01-16T12:33:07;6.10;;;3.20;;
84966;SDS011;75275;51.348;12.358;2024-01-16T12:35:41;8.30;;;3.47;;
84966;SDS011;75275;51.348;12.358;2024-01-16T12:38:10;7.63;;;2.90;;
84966;SDS011;75275;51.348;12.358;2024-01-16T12:40:41;8.00;;;3.42;;
84966;SDS011;75275;51.348;12.358;2024-01-16T12:43:11;5.45;;;3.47;;
84966;SDS011;75275;51.348;12.358;2024-01-16T12:48:05;7.72;;;3.28;;
84966;SDS011;75275;51.348;12.358;2024-01-16T12:50:38;8.05;;;3.45;;
84966;SDS011;75275;51.348;12.358;2024-01-16T12:53:05;7.95;;;3.95;;
84966;SDS011;75275;51.348;12.358;2024-01-16T12:55:33;8.48;;;3.88;;
84966;SDS011;75275;51.348;12.358;2024-01-16T12:58:15;6.93;;;3.53;;
84966;SDS011;75275;51.348;12.358;2024-01-16T13:00:43;8.73;;;3.83;;
84966;SDS011;75275;51.348;12.358;2024-01-16T13:03:17;8.35;;;3.88;;
84966;SDS011;75275;51.348;12.358;2024-01-16T13:05:54;6.07;;;3.53;;
84966;SDS011;75275;51.348;12.358;2024-01-16T13:08:22;8.68;;;3.78;;
84966;SDS011;75275;51.348;12.358;2024-01-16T13:11:01;6.93;;;3.88;;
84966;SDS011;75275;51.348;12.358;2024-01-16T13:13:29;9.57;;;4.30;;
84966;SDS011;75275;51.348;12.358;2024-01-16T13:15:57;7.28;;;3.83;;
84966;SDS011;75275;51.348;12.358;2024-01-16T13:18:24;6.85;;;3.85;;
84966;SDS011;75275;51.348;12.358;2024-01-16T13:20:54;7.25;;;4.45;;
84966;SDS011;75275;51.348;12.358;2024-01-16T13:23:22;7.60;;;3.55;;
84966;SDS011;75275;51.348;12.358;2024-01-16T13:25:58;10.68;;;3.72;;
84966;SDS011;75275;51.348;12.358;2024-01-16T13:30:55;7.20;;;4.20;;
84966;SDS011;75275;51.348;12.358;2024-01-16T13:33:22;5.20;;;3.90;;
84966;SDS011;75275;51.348;12.358;2024-01-16T13:35:52;7.53;;;4.05;;
84966;SDS011;75275;51.348;12.358;2024-01-16T13:38:20;6.63;;;4.03;;
84966;SDS011;75275;51.348;12.358;2024-01-16T13:40:48;11.07;;;4.13;;
84966;SDS011;75275;51.348;12.358;2024-01-16T13:43:15;6.05;;;3.65;;
84966;SDS011;75275;51.348;12.358;2024-01-16T13:48:09;9.45;;;4.32;;
84966;SDS011;75275;51.348;12.358;2024-01-16T13:50:36;9.18;;;4.00;;
84966;SDS011;75275;51.348;12.358;2024-01-16T13:53:07;6.53;;;3.97;;
84966;SDS011;75275;51.348;12.358;2024-01-16T13:55:37;8.27;;;3.10;;
84966;SDS011;75275;51.348;12.358;2024-01-16T13:58:05;6.30;;;3.75;;
84966;SDS011;75275;51.348;12.358;2024-01-16T14:00:32;5.05;;;3.70;;
84966;SDS011;75275;51.348;12.358;2024-01-16T14:02:59;7.93;;;4.32;;
84966;SDS011;75275;51.348;12.358;2024-01-16T14:05:28;8.00;;;3.90;;
84966;SDS011;75275;51.348;12.358;2024-01-16T14:10:23;10.45;;;3.90;;
84966;SDS011;75275;51.348;12.358;2024-01-16T14:12:50;6.75;;;3.45;;
84966;SDS011;75275;51.348;12.358;2024-01-16T14:15:18;7.15;;;3.28;;
84966;SDS011;75275;51.348;12.358;2024-01-16T14:17:51;5.93;;;3.63;;
84966;SDS011;75275;51.348;12.358;2024-01-16T14:20:22;6.00;;;4.07;;
84966;SDS011;75275;51.348;12.358;2024-01-16T14:22:51;5.75;;;3.85;;
84966;SDS011;75275;51.348;12.358;2024-01-16T14:25:19;9.30;;;3.47;;
84966;SDS011;75275;51.348;12.358;2024-01-16T14:27:55;5.95;;;3.90;;
84966;SDS011;75275;51.348;12.358;2024-01-16T14:30:23;8.55;;;3.67;;
84966;SDS011;75275;51.348;12.358;2024-01-16T14:35:17;7.45;;;3.53;;
84966;SDS011;75275;51.348;12.358;2024-01-16T14:37:45;6.85;;;3.45;;
84966;SDS011;75275;51.348;12.358;2024-01-16T14:42:41;8.90;;;4.10;;
84966;SDS011;75275;51.348;12.358;2024-01-16T14:45:11;5.80;;;3.65;;
84966;SDS011;75275;51.348;12.358;2024-01-16T14:47:38;6.35;;;3.65;;
84966;SDS011;75275;51.348;12.358;2024-01-16T14:50:05;5.68;;;3.30;;
84966;SDS011;75275;51.348;12.358;2024-01-16T14:52:34;7.50;;;3.95;;
84966;SDS011;75275;51.348;12.358;2024-01-16T14:55:10;5.90;;;3.08;;
84966;SDS011;75275;51.348;12.358;2024-01-16T14:57:38;7.82;;;3.92;;
84966;SDS011;75275;51.348;12.358;2024-01-16T15:00:11;7.40;;;3.58;;
84966;SDS011;75275;51.348;12.358;2024-01-16T15:02:45;7.85;;;3.47;;
84966;SDS011;75275;51.348;12.358;2024-01-16T15:05:13;7.00;;;3.83;;
84966;SDS011;75275;51.348;12.358;2024-01-16T15:07:40;8.40;;;3.78;;
84966;SDS011;75275;51.348;12.358;2024-01-16T15:10:08;5.50;;;3.25;;
84966;SDS011;75275;51.348;12.358;2024-01-16T15:12:37;8.68;;;3.95;;
84966;SDS011;75275;51.348;12.358;2024-01-16T15:15:05;7.28;;;3.08;;
84966;SDS011;75275;51.348;12.358;2024-01-16T15:17:34;5.45;;;3.50;;
84966;SDS011;75275;51.348;12.358;2024-01-16T15:20:01;5.68;;;3.42;;
84966;SDS011;75275;51.348;12.358;2024-01-16T15:22:29;7.50;;;4.43;;
84966;SDS011;75275;51.348;12.358;2024-01-16T15:24:57;7.05;;;3.67;;
84966;SDS011;75275;51.348;12.358;2024-01-16T15:27:23;8.75;;;3.60;;